createdAt,value
2024-02-29T00:00:01.915Z,63.35
2024-02-29T00:02:33.788Z,61.53
2024-02-29T00:05:07.072Z,64.97
2024-02-29T00:07:40.042Z,62.08
2024-02-29T00:10:11.827Z,68.82
2024-02-29T00:12:43.929Z,62.47
2024-02-29T00:15:15.547Z,66.97
2024-02-29T00:17:47.166Z,66.88
2024-02-29T00:20:19.261Z,70.95
2024-02-29T00:22:51.133Z,63.63
2024-02-29T00:25:22.654Z,60.60
2024-02-29T00:27:54.219Z,66.78
2024-02-29T00:30:25.859Z,66.95
2024-02-29T00:32:58.507Z,69.90
2024-02-29T00:35:32.653Z,71.63
2024-02-29T00:38:04.511Z,69.20
2024-02-29T00:40:36.037Z,64.57
2024-02-29T00:43:07.667Z,64.40
2024-02-29T00:45:39.339Z,66.55
2024-02-29T00:48:11.673Z,63.75
2024-02-29T00:50:43.396Z,65.57
2024-02-29T00:53:14.936Z,62.83
2024-02-29T00:55:46.476Z,62.47
2024-02-29T00:58:18.020Z,68.07
2024-02-29T01:00:49.850Z,66.80
2024-02-29T01:03:21.463Z,71.32
2024-02-29T01:05:53.089Z,72.40
2024-02-29T01:08:24.696Z,63.42
2024-02-29T01:10:56.301Z,65.95
2024-02-29T01:13:28.671Z,70.43
2024-02-29T01:16:00.282Z,60.78
2024-02-29T01:18:32.144Z,65.07
2024-02-29T01:21:04.405Z,64.93
2024-02-29T01:23:36.010Z,68.28
2024-02-29T01:26:07.998Z,65.78
2024-02-29T01:28:39.576Z,70.05
2024-02-29T01:31:11.560Z,70.45
2024-02-29T01:33:43.209Z,68.10
2024-02-29T01:36:14.847Z,53.15
2024-02-29T01:38:46.408Z,67.63
2024-02-29T01:41:19.612Z,70.57
2024-02-29T01:43:55.040Z,72.35
2024-02-29T01:46:26.771Z,67.63
2024-02-29T01:48:58.813Z,68.18
2024-02-29T01:51:30.870Z,69.93
2024-02-29T01:54:02.474Z,62.13
2024-02-29T01:56:34.243Z,71.28
2024-02-29T01:59:05.982Z,66.07
2024-02-29T02:01:38.312Z,68.72
2024-02-29T02:04:09.984Z,68.45
2024-02-29T02:06:41.660Z,66.95
2024-02-29T02:09:13.205Z,63.33
2024-02-29T02:11:44.852Z,66.57
2024-02-29T02:14:16.735Z,56.33
2024-02-29T02:16:49.475Z,64.25
2024-02-29T02:19:21.150Z,56.83
2024-02-29T02:21:53.186Z,63.67
2024-02-29T02:24:25.664Z,62.20
2024-02-29T02:26:57.198Z,57.22
2024-02-29T02:29:28.770Z,59.60
2024-02-29T02:32:00.330Z,61.72
2024-02-29T02:34:31.918Z,54.85
2024-02-29T02:37:03.554Z,51.95
2024-02-29T02:39:35.168Z,58.00
2024-02-29T02:42:07.666Z,58.45
2024-02-29T02:44:39.294Z,52.25
2024-02-29T02:47:10.858Z,62.63
2024-02-29T02:49:42.999Z,58.28
2024-02-29T02:52:14.698Z,54.47
2024-02-29T02:54:46.321Z,46.08
2024-02-29T02:57:17.884Z,49.95
2024-02-29T02:59:49.428Z,54.63
2024-02-29T03:02:21.025Z,63.00
2024-02-29T03:04:52.834Z,56.50
2024-02-29T03:07:24.502Z,59.60
2024-02-29T03:09:56.125Z,47.95
2024-02-29T03:12:28.700Z,44.83
2024-02-29T03:15:00.263Z,42.35
2024-02-29T03:17:32.167Z,47.13
2024-02-29T03:20:06.886Z,45.47
2024-02-29T03:22:39.046Z,50.38
2024-02-29T03:25:10.869Z,48.53
2024-02-29T03:27:42.561Z,41.90
2024-02-29T03:30:14.409Z,43.90
2024-02-29T03:32:45.982Z,45.58
2024-02-29T03:35:17.605Z,41.65
2024-02-29T03:37:49.240Z,42.30
2024-02-29T03:40:20.985Z,43.78
2024-02-29T03:42:52.583Z,41.90
2024-02-29T03:45:24.240Z,44.67
2024-02-29T03:47:55.849Z,41.10
2024-02-29T03:50:28.093Z,40.33
2024-02-29T03:52:59.717Z,34.92
2024-02-29T03:55:31.594Z,38.13
2024-02-29T03:58:04.061Z,34.13
2024-02-29T04:00:35.827Z,38.53
2024-02-29T04:03:07.405Z,37.58
2024-02-29T04:05:38.989Z,39.97
2024-02-29T04:08:13.204Z,36.70
2024-02-29T04:10:49.765Z,40.90
2024-02-29T04:13:23.650Z,36.60
2024-02-29T04:15:55.280Z,33.25
2024-02-29T04:18:27.028Z,31.15
2024-02-29T04:20:58.695Z,33.65
2024-02-29T04:23:30.221Z,33.15
2024-02-29T04:26:01.928Z,34.45
2024-02-29T04:28:34.263Z,32.25
2024-02-29T04:31:10.132Z,29.40
2024-02-29T04:33:41.724Z,31.40
2024-02-29T04:36:13.412Z,34.40
2024-02-29T04:38:45.453Z,25.55
2024-02-29T04:41:17.566Z,31.15
2024-02-29T04:43:49.690Z,24.13
2024-02-29T04:46:21.390Z,27.02
2024-02-29T04:48:52.977Z,27.33
2024-02-29T04:51:24.516Z,40.35
2024-02-29T04:53:56.104Z,27.60
2024-02-29T04:56:27.695Z,28.58
2024-02-29T04:58:59.475Z,26.85
2024-02-29T05:01:31.281Z,28.48
2024-02-29T05:04:04.651Z,32.28
2024-02-29T05:06:36.329Z,31.13
2024-02-29T05:09:07.877Z,27.52
2024-02-29T05:11:40.077Z,24.27
2024-02-29T05:14:11.776Z,18.98
2024-02-29T05:16:43.273Z,25.17
2024-02-29T05:19:15.276Z,23.65
2024-02-29T05:21:48.191Z,17.98
2024-02-29T05:24:19.948Z,21.98
2024-02-29T05:26:51.672Z,20.90
2024-02-29T05:29:23.229Z,19.85
2024-02-29T05:31:54.845Z,22.25
2024-02-29T05:34:26.496Z,23.63
2024-02-29T05:36:58.105Z,20.38
2024-02-29T05:39:31.308Z,25.15
2024-02-29T05:42:04.062Z,21.60
2024-02-29T05:44:36.068Z,16.05
2024-02-29T05:47:09.115Z,17.90
2024-02-29T05:49:40.672Z,22.77
2024-02-29T05:52:12.474Z,18.73
2024-02-29T05:54:45.227Z,21.38
2024-02-29T05:57:16.731Z,19.02
2024-02-29T05:59:48.231Z,24.85
2024-02-29T06:02:19.797Z,19.85
2024-02-29T06:04:51.366Z,17.30
2024-02-29T06:07:23.386Z,20.73
2024-02-29T06:09:55.737Z,19.45
2024-02-29T06:12:27.866Z,15.60
2024-02-29T06:14:59.512Z,18.00
2024-02-29T06:17:31.166Z,17.42
2024-02-29T06:20:02.922Z,18.13
2024-02-29T06:22:34.559Z,15.80
2024-02-29T06:25:06.883Z,17.08
2024-02-29T06:27:40.099Z,15.80
2024-02-29T06:30:11.979Z,16.98
2024-02-29T06:32:45.676Z,16.17
2024-02-29T06:35:17.316Z,16.10
2024-02-29T06:37:48.815Z,13.63
2024-02-29T06:40:22.999Z,15.25
2024-02-29T06:42:54.774Z,17.95
2024-02-29T06:45:26.345Z,16.70
2024-02-29T06:47:58.517Z,15.85
2024-02-29T06:50:30.184Z,17.33
2024-02-29T06:53:01.680Z,19.95
2024-02-29T06:55:33.329Z,18.63
2024-02-29T06:58:06.583Z,13.40
2024-02-29T07:00:38.966Z,15.02
2024-02-29T07:03:10.783Z,16.25
2024-02-29T07:05:42.435Z,15.27
2024-02-29T07:08:14.905Z,18.27
2024-02-29T07:10:49.335Z,17.67
2024-02-29T07:13:21.023Z,16.80
2024-02-29T07:15:52.746Z,15.32
2024-02-29T07:18:25.142Z,16.38
2024-02-29T07:20:56.696Z,15.95
2024-02-29T07:23:28.256Z,16.90
2024-02-29T07:26:04.311Z,16.50
2024-02-29T07:28:35.890Z,15.57
2024-02-29T07:31:07.651Z,14.05
2024-02-29T07:33:39.382Z,12.98
2024-02-29T07:36:11.184Z,15.77
2024-02-29T07:38:43.646Z,11.50
2024-02-29T07:41:15.397Z,14.20
2024-02-29T07:43:48.285Z,18.45
2024-02-29T07:46:19.955Z,14.73
2024-02-29T07:48:51.629Z,17.98
2024-02-29T07:51:23.220Z,18.33
2024-02-29T07:53:54.741Z,19.00
2024-02-29T07:56:28.703Z,15.15
2024-02-29T07:59:01.683Z,19.25
2024-02-29T08:01:33.332Z,18.70
2024-02-29T08:04:05.233Z,20.58
2024-02-29T08:06:37.215Z,19.50
2024-02-29T08:09:10.808Z,17.80
2024-02-29T08:11:42.536Z,15.82
2024-02-29T08:14:15.352Z,14.10
2024-02-29T08:16:48.079Z,14.93
2024-02-29T08:19:19.804Z,12.27
2024-02-29T08:21:51.510Z,15.07
2024-02-29T08:24:23.061Z,13.18
2024-02-29T08:26:54.580Z,15.90
2024-02-29T08:29:26.241Z,16.08
2024-02-29T08:31:57.899Z,12.48
2024-02-29T08:34:29.861Z,16.00
2024-02-29T08:37:03.180Z,17.17
2024-02-29T08:39:36.060Z,14.85
2024-02-29T08:42:10.762Z,16.20
2024-02-29T08:44:44.155Z,13.05
2024-02-29T08:47:15.723Z,16.52
2024-02-29T08:49:47.480Z,16.10
2024-02-29T08:52:19.105Z,14.80
2024-02-29T08:54:50.841Z,16.38
2024-02-29T08:57:22.405Z,12.75
2024-02-29T08:59:54.026Z,12.55
2024-02-29T09:02:25.673Z,18.40
2024-02-29T09:04:57.269Z,15.52
2024-02-29T09:07:29.087Z,17.58
2024-02-29T09:10:00.806Z,14.02
2024-02-29T09:12:32.490Z,13.75
2024-02-29T09:15:04.378Z,16.85
2024-02-29T09:17:35.977Z,15.00
2024-02-29T09:20:08.461Z,13.38
2024-02-29T09:22:40.048Z,12.20
2024-02-29T09:25:11.956Z,14.15
2024-02-29T09:27:44.508Z,16.92
2024-02-29T09:30:16.178Z,13.05
2024-02-29T09:32:53.157Z,15.05
2024-02-29T09:35:26.134Z,14.98
2024-02-29T09:37:57.620Z,18.13
2024-02-29T09:40:35.240Z,12.45
2024-02-29T09:43:13.956Z,17.38
2024-02-29T09:45:46.429Z,13.05
2024-02-29T09:48:18.072Z,13.18
2024-02-29T09:50:49.623Z,12.85
2024-02-29T09:53:22.483Z,15.02
2024-02-29T09:55:54.654Z,13.18
2024-02-29T09:58:27.444Z,16.85
2024-02-29T10:00:59.601Z,11.88
2024-02-29T10:03:31.438Z,13.27
2024-02-29T10:06:04.071Z,14.57
2024-02-29T10:08:36.728Z,13.70
2024-02-29T10:11:11.139Z,11.25
2024-02-29T10:13:42.920Z,13.07
2024-02-29T10:16:14.831Z,14.23
2024-02-29T10:18:46.746Z,9.35
2024-02-29T10:21:18.425Z,12.60
2024-02-29T10:23:49.947Z,12.77
2024-02-29T10:26:21.595Z,10.98
2024-02-29T10:29:02.949Z,9.98
2024-02-29T10:31:34.634Z,12.45
2024-02-29T10:34:06.265Z,13.43
2024-02-29T10:36:38.083Z,12.25
2024-02-29T10:39:10.118Z,12.13
2024-02-29T10:41:48.934Z,12.98
2024-02-29T10:44:22.845Z,10.82
2024-02-29T10:46:56.917Z,12.15
2024-02-29T10:49:34.794Z,11.77
2024-02-29T10:52:14.300Z,9.02
2024-02-29T10:55:10.392Z,11.13
2024-02-29T10:57:48.410Z,13.48
2024-02-29T11:00:19.940Z,8.02
2024-02-29T11:02:53.582Z,11.07
2024-02-29T11:05:26.502Z,9.10
2024-02-29T11:07:58.722Z,9.23
2024-02-29T11:10:30.437Z,8.98
2024-02-29T11:13:02.535Z,12.40
2024-02-29T11:15:34.207Z,9.38
2024-02-29T11:18:06.008Z,11.57
2024-02-29T11:20:37.573Z,11.05
2024-02-29T11:23:11.387Z,8.48
2024-02-29T11:25:44.270Z,10.32
2024-02-29T11:28:17.514Z,10.45
2024-02-29T11:30:52.187Z,12.77
2024-02-29T11:33:23.948Z,11.65
2024-02-29T11:35:56.164Z,11.25
2024-02-29T11:38:32.761Z,9.98
2024-02-29T11:41:17.872Z,9.77
2024-02-29T11:43:50.428Z,8.55
2024-02-29T11:46:22.137Z,13.02
2024-02-29T11:48:57.092Z,10.90
2024-02-29T11:51:29.654Z,13.20
2024-02-29T11:54:01.289Z,9.45
2024-02-29T11:56:32.946Z,11.68
2024-02-29T11:59:04.938Z,11.98
2024-02-29T12:01:37.634Z,9.15
2024-02-29T12:04:09.439Z,9.25
2024-02-29T12:06:41.143Z,9.80
2024-02-29T12:09:16.158Z,9.32
2024-02-29T12:11:49.212Z,9.00
2024-02-29T12:14:21.779Z,7.55
2024-02-29T12:16:53.384Z,8.23
2024-02-29T12:19:25.018Z,8.82
2024-02-29T12:21:56.578Z,10.57
2024-02-29T12:24:28.173Z,12.90
2024-02-29T12:26:59.688Z,7.50
2024-02-29T12:29:31.306Z,9.45
2024-02-29T12:32:02.976Z,10.05
2024-02-29T12:34:38.860Z,8.02
2024-02-29T12:37:11.994Z,8.40
2024-02-29T12:39:53.845Z,7.97
2024-02-29T12:42:25.511Z,9.32
2024-02-29T12:44:57.221Z,9.80
2024-02-29T12:47:29.782Z,10.18
2024-02-29T12:50:01.413Z,8.02
2024-02-29T12:52:33.044Z,7.93
2024-02-29T12:55:04.889Z,6.90
2024-02-29T12:57:36.481Z,7.80
2024-02-29T13:00:10.996Z,8.27
2024-02-29T13:02:43.033Z,7.70
2024-02-29T13:05:15.390Z,10.15
2024-02-29T13:07:47.345Z,8.48
2024-02-29T13:10:19.311Z,8.23
2024-02-29T13:12:57.225Z,8.27
2024-02-29T13:15:34.885Z,10.27
2024-02-29T13:18:06.478Z,6.85
2024-02-29T13:20:38.059Z,9.82
2024-02-29T13:23:09.579Z,7.25
2024-02-29T13:25:41.497Z,5.95
2024-02-29T13:28:14.783Z,5.15
2024-02-29T13:30:46.512Z,6.10
2024-02-29T13:33:18.189Z,7.80
2024-02-29T13:35:50.597Z,5.78
2024-02-29T13:38:22.504Z,7.88
2024-02-29T13:40:54.025Z,6.85
2024-02-29T13:43:25.653Z,6.82
2024-02-29T13:45:57.375Z,9.07
2024-02-29T13:48:29.104Z,5.90
2024-02-29T13:51:00.769Z,5.63
2024-02-29T13:53:32.379Z,7.30
2024-02-29T13:56:04.616Z,4.47
2024-02-29T13:58:36.140Z,7.57
2024-02-29T14:01:10.633Z,5.35
2024-02-29T14:03:43.239Z,4.45
2024-02-29T14:06:14.881Z,6.65
2024-02-29T14:08:46.487Z,6.90
2024-02-29T14:11:18.171Z,5.97
2024-02-29T14:13:49.750Z,5.32
2024-02-29T14:16:21.350Z,7.18
2024-02-29T14:18:54.135Z,5.72
2024-02-29T14:21:26.528Z,6.20
2024-02-29T14:23:59.186Z,5.72
2024-02-29T14:26:30.965Z,9.15
2024-02-29T14:29:04.556Z,5.82
2024-02-29T14:31:36.115Z,8.80
2024-02-29T14:34:07.718Z,13.55
2024-02-29T14:36:39.859Z,5.10
2024-02-29T14:39:14.813Z,5.82
2024-02-29T14:41:48.157Z,4.07
2024-02-29T14:44:19.934Z,9.88
2024-02-29T14:46:52.091Z,4.13
2024-02-29T14:49:23.902Z,5.63
2024-02-29T14:51:58.105Z,4.30
2024-02-29T14:54:29.707Z,5.78
2024-02-29T14:57:01.986Z,5.50
2024-02-29T14:59:33.511Z,6.35
2024-02-29T15:02:07.022Z,8.68
2024-02-29T15:04:39.174Z,15.45
2024-02-29T15:07:12.425Z,11.85
2024-02-29T15:09:44.082Z,13.38
2024-02-29T15:12:15.693Z,16.75
2024-02-29T15:14:48.226Z,15.68
2024-02-29T15:17:19.751Z,14.32
2024-02-29T15:19:51.835Z,20.58
2024-02-29T15:22:25.967Z,29.95
2024-02-29T15:24:57.576Z,29.67
2024-02-29T15:27:38.704Z,19.08
2024-02-29T15:30:10.923Z,16.33
2024-02-29T15:32:42.778Z,19.20
2024-02-29T15:35:14.479Z,20.35
2024-02-29T15:37:46.214Z,29.35
2024-02-29T15:40:17.914Z,16.83
2024-02-29T15:42:49.540Z,14.80
2024-02-29T15:45:21.255Z,17.55
2024-02-29T15:47:52.940Z,17.02
2024-02-29T15:50:24.968Z,18.88
2024-02-29T15:52:56.573Z,16.73
2024-02-29T15:55:28.201Z,15.38
2024-02-29T15:58:00.031Z,19.50
2024-02-29T16:00:32.096Z,19.70
2024-02-29T16:03:07.057Z,17.10
2024-02-29T16:05:38.730Z,21.42
2024-02-29T16:08:10.276Z,16.33
2024-02-29T16:10:42.566Z,17.15
2024-02-29T16:13:14.167Z,17.23
2024-02-29T16:15:45.866Z,15.60
2024-02-29T16:18:17.466Z,19.10
2024-02-29T16:20:53.163Z,17.92
2024-02-29T16:23:24.678Z,18.73
2024-02-29T16:25:56.393Z,20.10
2024-02-29T16:28:29.194Z,16.05
2024-02-29T16:31:00.907Z,19.85
2024-02-29T16:33:32.550Z,20.27
2024-02-29T16:36:07.256Z,20.13
2024-02-29T16:38:40.496Z,16.75
2024-02-29T16:41:12.241Z,20.75
2024-02-29T16:43:43.833Z,17.45
2024-02-29T16:46:16.854Z,20.08
2024-02-29T16:48:50.482Z,18.23
2024-02-29T16:51:22.270Z,15.40
2024-02-29T16:53:55.598Z,16.55
2024-02-29T16:56:28.821Z,18.10
2024-02-29T16:59:00.420Z,22.85
2024-02-29T17:01:32.015Z,18.52
2024-02-29T17:04:05.424Z,20.48
2024-02-29T17:06:37.121Z,16.00
2024-02-29T17:09:08.757Z,20.65
2024-02-29T17:11:40.321Z,17.13
2024-02-29T17:14:11.856Z,14.38
2024-02-29T17:16:43.486Z,17.30
2024-02-29T17:19:15.110Z,15.38
2024-02-29T17:21:47.201Z,18.13
2024-02-29T17:24:22.456Z,19.92
2024-02-29T17:26:54.291Z,20.90
2024-02-29T17:29:25.822Z,16.85
2024-02-29T17:31:57.385Z,18.05
2024-02-29T17:34:28.895Z,24.05
2024-02-29T17:37:00.674Z,18.98
2024-02-29T17:39:32.304Z,17.95
2024-02-29T17:42:06.118Z,15.43
2024-02-29T17:44:38.312Z,17.90
2024-02-29T17:47:10.349Z,18.27
2024-02-29T17:49:41.885Z,17.33
2024-02-29T17:52:14.126Z,13.98
2024-02-29T17:54:45.879Z,18.17
2024-02-29T17:57:17.485Z,18.50
2024-02-29T17:59:49.040Z,17.20
2024-02-29T18:02:20.708Z,16.58
2024-02-29T18:04:52.730Z,20.92
2024-02-29T18:07:24.548Z,14.57
2024-02-29T18:09:59.601Z,21.58
2024-02-29T18:12:33.814Z,16.02
2024-02-29T18:15:06.095Z,21.67
2024-02-29T18:17:37.858Z,17.48
2024-02-29T18:20:09.756Z,15.32
2024-02-29T18:22:42.168Z,16.35
2024-02-29T18:25:14.134Z,24.75
2024-02-29T18:27:45.915Z,20.77
2024-02-29T18:30:17.745Z,21.08
2024-02-29T18:32:52.258Z,14.43
2024-02-29T18:35:24.032Z,13.40
2024-02-29T18:37:55.633Z,13.48
2024-02-29T18:40:27.328Z,20.77
2024-02-29T18:42:59.017Z,17.35
2024-02-29T18:46:02.707Z,13.63
2024-02-29T18:48:37.649Z,15.23
2024-02-29T18:51:09.999Z,13.95
2024-02-29T18:53:41.559Z,16.08
2024-02-29T18:56:13.096Z,16.13
2024-02-29T18:58:44.652Z,16.42
2024-02-29T19:01:16.358Z,12.80
2024-02-29T19:03:49.860Z,16.73
2024-02-29T19:06:21.501Z,14.60
2024-02-29T19:08:53.118Z,15.68
2024-02-29T19:11:24.700Z,16.10
2024-02-29T19:13:57.440Z,18.35
2024-02-29T19:16:29.305Z,15.20
2024-02-29T19:19:01.323Z,15.57
2024-02-29T19:21:33.189Z,17.73
2024-02-29T19:24:06.242Z,17.90
2024-02-29T19:26:38.807Z,20.50
2024-02-29T19:29:10.733Z,15.40
2024-02-29T19:31:42.368Z,15.65
2024-02-29T19:34:14.069Z,21.00
2024-02-29T19:36:48.066Z,17.98
2024-02-29T19:39:19.866Z,14.82
2024-02-29T19:41:52.385Z,16.02
2024-02-29T19:44:23.995Z,18.48
2024-02-29T19:46:55.550Z,18.63
2024-02-29T19:49:27.430Z,19.60
2024-02-29T19:51:59.097Z,18.33
2024-02-29T19:54:30.893Z,19.70
2024-02-29T19:57:02.489Z,20.10
2024-02-29T19:59:34.682Z,15.13
2024-02-29T20:02:07.016Z,19.52
2024-02-29T20:04:39.256Z,22.35
2024-02-29T20:07:11.584Z,24.38
2024-02-29T20:09:49.597Z,18.95
2024-02-29T20:12:21.704Z,17.08
2024-02-29T20:14:55.043Z,17.50
2024-02-29T20:17:26.794Z,19.98
2024-02-29T20:19:58.305Z,19.25
2024-02-29T20:22:29.860Z,19.67
2024-02-29T20:25:01.529Z,24.25
2024-02-29T20:27:35.404Z,20.35
2024-02-29T20:30:09.031Z,16.80
2024-02-29T20:32:41.445Z,19.30
2024-02-29T20:35:13.219Z,20.63
2024-02-29T20:37:45.102Z,21.42
2024-02-29T20:40:18.017Z,20.73
2024-02-29T20:42:49.716Z,19.80
2024-02-29T20:45:21.352Z,18.17
2024-02-29T20:47:53.778Z,21.52
2024-02-29T20:50:28.185Z,20.77
2024-02-29T20:52:59.781Z,22.85
2024-02-29T20:55:31.430Z,20.52
2024-02-29T20:58:03.418Z,19.27
2024-02-29T21:00:35.028Z,25.25
2024-02-29T21:03:08.953Z,19.77
2024-02-29T21:05:40.600Z,23.48
2024-02-29T21:08:12.336Z,22.75
2024-02-29T21:10:43.930Z,22.90
2024-02-29T21:13:15.642Z,23.33
2024-02-29T21:15:47.424Z,19.35
2024-02-29T21:18:19.114Z,21.70
2024-02-29T21:20:50.767Z,24.17
2024-02-29T21:23:22.306Z,20.25
2024-02-29T21:25:54.522Z,25.25
2024-02-29T21:28:26.152Z,18.98
2024-02-29T21:30:57.772Z,21.38
2024-02-29T21:33:32.108Z,18.20
2024-02-29T21:36:04.029Z,19.42
2024-02-29T21:38:36.516Z,20.65
2024-02-29T21:41:08.022Z,21.38
2024-02-29T21:43:39.792Z,20.10
2024-02-29T21:46:12.040Z,18.90
2024-02-29T21:48:46.145Z,18.88
2024-02-29T21:51:19.029Z,18.73
2024-02-29T21:53:53.031Z,16.67
2024-02-29T21:56:24.654Z,19.88
2024-02-29T21:58:56.265Z,21.75
2024-02-29T22:01:27.916Z,18.88
2024-02-29T22:03:59.521Z,18.52
2024-02-29T22:06:31.225Z,16.98
2024-02-29T22:09:03.269Z,21.45
2024-02-29T22:11:34.960Z,22.13
2024-02-29T22:14:06.653Z,18.08
2024-02-29T22:16:42.275Z,19.35
2024-02-29T22:19:14.427Z,18.92
2024-02-29T22:21:46.572Z,18.85
2024-02-29T22:24:18.223Z,20.30
2024-02-29T22:26:50.008Z,18.98
2024-02-29T22:29:23.153Z,22.80
2024-02-29T22:31:54.718Z,18.10
2024-02-29T22:34:26.529Z,23.23
2024-02-29T22:36:58.096Z,19.25
2024-02-29T22:39:30.013Z,17.60
2024-02-29T22:42:02.633Z,18.13
2024-02-29T22:44:34.889Z,19.25
2024-02-29T22:47:06.639Z,24.52
2024-02-29T22:49:38.193Z,20.00
2024-02-29T22:52:10.563Z,19.30
2024-02-29T22:54:42.505Z,24.85
2024-02-29T22:57:14.139Z,24.85
2024-02-29T22:59:45.663Z,17.15
2024-02-29T23:02:17.432Z,18.70
2024-02-29T23:04:49.254Z,21.27
2024-02-29T23:07:20.818Z,20.17
2024-02-29T23:09:52.838Z,18.45
2024-02-29T23:12:24.410Z,20.45
2024-02-29T23:14:55.919Z,22.73
2024-02-29T23:17:27.501Z,18.52
2024-02-29T23:19:59.121Z,19.98
2024-02-29T23:22:30.701Z,22.65
2024-02-29T23:25:02.467Z,24.63
2024-02-29T23:27:34.185Z,17.60
2024-02-29T23:30:06.877Z,18.30
2024-02-29T23:32:39.285Z,25.13
2024-02-29T23:35:10.876Z,19.85
2024-02-29T23:37:42.512Z,19.95
2024-02-29T23:40:17.183Z,24.27
2024-02-29T23:42:48.820Z,18.35
2024-02-29T23:45:40.676Z,18.52
2024-02-29T23:48:12.564Z,20.60
2024-02-29T23:50:45.413Z,21.58
2024-02-29T23:53:17.266Z,19.95
2024-02-29T23:55:48.827Z,18.42
2024-02-29T23:58:20.534Z,20.25
